Gramercy, Louisiana
Current Conditions -  °F | °C
As of 11:35 PM on Saturday 22 Nov 2014 (Local Time) from K1L0 Reporting Station
Haze Haze  
Wind Chill: 63°   Ceiling: 200
Heat Index: 63°   Visibility: 3mi
Dew Point: 61°   Wind: 9mph
Humidity: 93%   Direction: 80°E
Pressure: 29.86"   Gusts: 17mph
Location:  30.05°N, 90.69°W
Report Text: K1L0 230535Z AUTO 08008G15KT 3SM BR OVC002 17/16 A2986 RMK AO2 T01720160
Loading
Personal Weather Stations






























Interactive Weather Map New forecast layout! Learn more

10-Day Weather Forecast

Advertisements
Track Severe Weather on mobile